KGFL/GFL METAR and TAF weather

Enter ICAO airport designator
Station Type Date Time Source
KGFL METAR 2020/09/18 15:53 UTC NOAA

KGFL 181553Z AUTO 03009G14KT 10SM CLR 16/01 A3008 RMK AO2 SLP188 T01560006


Station Type Date Time Source
KGFL Decoded METAR 2020/09/18 15:53 UTC NOAA

FLOYD BENNETT MEMORIAL AIRPORT , NY, United States (KGFL) 43-20N 073-37W 103M
Sep 18, 2020 - 11:53 AM EDT / 2020.09.18 1553 UTC
Wind: from the NNE (030 degrees) at 10 MPH (9 KT) gusting to 16 MPH (14 KT):0
Visibility: 10 mile(s):0
Sky conditions: clear
Temperature: 60.1 F (15.6 C)
Dew Point: 33.1 F (0.6 C)
Relative Humidity: 36%
Pressure (altimeter): 30.08 in. Hg (1018 hPa)
ob: KGFL 181553Z AUTO 03009G14KT 10SM CLR 16/01 A3008 RMK AO2 SLP188 T01560006
cycle: 16

Station Type Date Time Source
KGFL TAF 2020/09/18 12:22 UTC NOAA

TAF KGFL 181120Z 1812/1912 04006KT P6SM BKN050
FM181300 01008KT P6SM SCT050
FM181600 02011G18KT P6SM FEW050
FM190100 01006KT P6SM SKC

Example: see airport list